sensor_id;sensor_type;location;lat;lon;timestamp;temperature;humidity
6256;DHT22;3161;48.794;9.784;2022-08-01T00:02:05;19.30;99.90
6256;DHT22;3161;48.794;9.784;2022-08-01T00:04:33;19.40;99.90
6256;DHT22;3161;48.794;9.784;2022-08-01T00:07:00;19.30;99.90
6256;DHT22;3161;48.794;9.784;2022-08-01T00:09:28;19.30;99.90
6256;DHT22;3161;48.794;9.784;2022-08-01T00:11:55;19.30;99.90
6256;DHT22;3161;48.794;9.784;2022-08-01T00:14:23;19.20;99.90
6256;DHT22;3161;48.794;9.784;2022-08-01T00:16:50;19.20;99.90
6256;DHT22;3161;48.794;9.784;2022-08-01T00:19:18;19.20;99.90
6256;DHT22;3161;48.794;9.784;2022-08-01T00:21:45;19.20;99.90
6256;DHT22;3161;48.794;9.784;2022-08-01T00:24:13;19.10;99.90
6256;DHT22;3161;48.794;9.784;2022-08-01T00:26:40;19.10;99.90
6256;DHT22;3161;48.794;9.784;2022-08-01T00:29:08;19.00;99.90
6256;DHT22;3161;48.794;9.784;2022-08-01T00:31:35;19.00;99.90
6256;DHT22;3161;48.794;9.784;2022-08-01T00:34:03;18.90;99.90
6256;DHT22;3161;48.794;9.784;2022-08-01T00:36:31;19.00;99.90
6256;DHT22;3161;48.794;9.784;2022-08-01T00:38:58;18.90;99.90
6256;DHT22;3161;48.794;9.784;2022-08-01T00:41:26;18.90;99.90
6256;DHT22;3161;48.794;9.784;2022-08-01T00:43:53;18.90;99.90
6256;DHT22;3161;48.794;9.784;2022-08-01T00:46:21;18.80;99.90
6256;DHT22;3161;48.794;9.784;2022-08-01T00:48:49;18.80;99.90
6256;DHT22;3161;48.794;9.784;2022-08-01T00:51:17;18.80;99.90
6256;DHT22;3161;48.794;9.784;2022-08-01T00:53:44;18.80;99.90
6256;DHT22;3161;48.794;9.784;2022-08-01T00:56:13;18.80;99.90
6256;DHT22;3161;48.794;9.784;2022-08-01T00:58:40;18.70;99.90
6256;DHT22;3161;48.794;9.784;2022-08-01T01:01:09;18.70;99.90
6256;DHT22;3161;48.794;9.784;2022-08-01T01:03:37;18.70;99.90
6256;DHT22;3161;48.794;9.784;2022-08-01T01:08:53;18.60;99.90
6256;DHT22;3161;48.794;9.784;2022-08-01T01:11:26;18.60;99.90
6256;DHT22;3161;48.794;9.784;2022-08-01T01:13:52;18.50;99.90
6256;DHT22;3161;48.794;9.784;2022-08-01T01:16:22;18.50;99.90
6256;DHT22;3161;48.794;9.784;2022-08-01T01:19:00;18.50;99.90
6256;DHT22;3161;48.794;9.784;2022-08-01T01:24:17;18.40;99.90
6256;DHT22;3161;48.794;9.784;2022-08-01T01:29:41;18.40;99.90
6256;DHT22;3161;48.794;9.784;2022-08-01T01:32:41;18.40;99.90
6256;DHT22;3161;48.794;9.784;2022-08-01T01:35:14;18.40;99.90
6256;DHT22;3161;48.794;9.784;2022-08-01T01:37:40;18.30;99.90
6256;DHT22;3161;48.794;9.784;2022-08-01T01:40:11;18.20;99.90
6256;DHT22;3161;48.794;9.784;2022-08-01T01:42:40;18.20;99.90
6256;DHT22;3161;48.794;9.784;2022-08-01T01:45:09;18.20;99.90
6256;DHT22;3161;48.794;9.784;2022-08-01T01:47:38;18.20;99.90
6256;DHT22;3161;48.794;9.784;2022-08-01T01:50:09;18.20;99.90
6256;DHT22;3161;48.794;9.784;2022-08-01T01:52:40;18.20;99.90
6256;DHT22;3161;48.794;9.784;2022-08-01T01:55:09;18.10;99.90
6256;DHT22;3161;48.794;9.784;2022-08-01T01:57:40;18.10;99.90
6256;DHT22;3161;48.794;9.784;2022-08-01T02:00:10;18.10;99.90
6256;DHT22;3161;48.794;9.784;2022-08-01T02:02:39;18.10;99.90
6256;DHT22;3161;48.794;9.784;2022-08-01T02:05:09;18.10;99.90
6256;DHT22;3161;48.794;9.784;2022-08-01T02:07:39;18.00;99.90
6256;DHT22;3161;48.794;9.784;2022-08-01T02:10:08;18.00;99.90
6256;DHT22;3161;48.794;9.784;2022-08-01T02:12:40;18.00;99.90
6256;DHT22;3161;48.794;9.784;2022-08-01T02:15:10;17.90;99.90
6256;DHT22;3161;48.794;9.784;2022-08-01T02:17:41;17.90;99.90
6256;DHT22;3161;48.794;9.784;2022-08-01T02:20:10;17.90;99.90
6256;DHT22;3161;48.794;9.784;2022-08-01T02:25:20;17.90;99.90
6256;DHT22;3161;48.794;9.784;2022-08-01T02:28:01;17.90;99.90
6256;DHT22;3161;48.794;9.784;2022-08-01T02:30:35;17.90;99.90
6256;DHT22;3161;48.794;9.784;2022-08-01T02:33:18;17.90;99.90
6256;DHT22;3161;48.794;9.784;2022-08-01T02:35:54;17.90;99.90
6256;DHT22;3161;48.794;9.784;2022-08-01T02:38:22;17.80;99.90
6256;DHT22;3161;48.794;9.784;2022-08-01T02:40:51;17.90;99.90
6256;DHT22;3161;48.794;9.784;2022-08-01T02:43:21;17.80;99.90
6256;DHT22;3161;48.794;9.784;2022-08-01T02:45:57;17.80;99.90
6256;DHT22;3161;48.794;9.784;2022-08-01T02:48:21;17.80;99.90
6256;DHT22;3161;48.794;9.784;2022-08-01T02:50:54;17.80;99.90
6256;DHT22;3161;48.794;9.784;2022-08-01T02:53:24;17.80;99.90
6256;DHT22;3161;48.794;9.784;2022-08-01T02:55:53;17.80;99.90
6256;DHT22;3161;48.794;9.784;2022-08-01T02:58:22;17.80;99.90
6256;DHT22;3161;48.794;9.784;2022-08-01T03:00:51;17.80;99.90
6256;DHT22;3161;48.794;9.784;2022-08-01T03:03:20;17.80;99.90
6256;DHT22;3161;48.794;9.784;2022-08-01T03:05:49;17.70;99.90
6256;DHT22;3161;48.794;9.784;2022-08-01T03:08:17;17.70;99.90
6256;DHT22;3161;48.794;9.784;2022-08-01T03:10:46;17.70;99.90
6256;DHT22;3161;48.794;9.784;2022-08-01T03:13:15;17.70;99.90
6256;DHT22;3161;48.794;9.784;2022-08-01T03:15:44;17.60;99.90
6256;DHT22;3161;48.794;9.784;2022-08-01T03:18:12;17.60;99.90
6256;DHT22;3161;48.794;9.784;2022-08-01T03:20:42;17.60;99.90
6256;DHT22;3161;48.794;9.784;2022-08-01T03:23:11;17.60;99.90
6256;DHT22;3161;48.794;9.784;2022-08-01T03:25:41;17.50;99.90
6256;DHT22;3161;48.794;9.784;2022-08-01T03:28:12;17.50;99.90
6256;DHT22;3161;48.794;9.784;2022-08-01T03:30:41;17.50;99.90
6256;DHT22;3161;48.794;9.784;2022-08-01T03:33:09;17.50;99.90
6256;DHT22;3161;48.794;9.784;2022-08-01T03:35:39;17.50;99.90
6256;DHT22;3161;48.794;9.784;2022-08-01T03:38:18;17.50;99.90
6256;DHT22;3161;48.794;9.784;2022-08-01T03:41:08;17.50;99.90
6256;DHT22;3161;48.794;9.784;2022-08-01T03:43:32;17.50;99.90
6256;DHT22;3161;48.794;9.784;2022-08-01T03:46:04;17.40;99.90
6256;DHT22;3161;48.794;9.784;2022-08-01T03:48:36;17.40;99.90
6256;DHT22;3161;48.794;9.784;2022-08-01T03:51:06;17.40;99.90
6256;DHT22;3161;48.794;9.784;2022-08-01T03:53:35;17.40;99.90
6256;DHT22;3161;48.794;9.784;2022-08-01T03:56:04;17.40;99.90
6256;DHT22;3161;48.794;9.784;2022-08-01T03:58:41;17.40;99.90
6256;DHT22;3161;48.794;9.784;2022-08-01T04:01:06;17.30;99.90
6256;DHT22;3161;48.794;9.784;2022-08-01T04:03:36;17.40;99.90
6256;DHT22;3161;48.794;9.784;2022-08-01T04:06:05;17.30;99.90
6256;DHT22;3161;48.794;9.784;2022-08-01T04:08:37;17.30;99.90
6256;DHT22;3161;48.794;9.784;2022-08-01T04:11:05;17.30;99.90
6256;DHT22;3161;48.794;9.784;2022-08-01T04:13:34;17.30;99.90
6256;DHT22;3161;48.794;9.784;2022-08-01T04:16:02;17.30;99.90
6256;DHT22;3161;48.794;9.784;2022-08-01T04:18:29;17.30;99.90
6256;DHT22;3161;48.794;9.784;2022-08-01T04:20:57;17.30;99.90
6256;DHT22;3161;48.794;9.784;2022-08-01T04:23:25;17.30;99.90
6256;DHT22;3161;48.794;9.784;2022-08-01T04:25:56;17.30;99.90
6256;DHT22;3161;48.794;9.784;2022-08-01T04:28:25;17.40;99.90
6256;DHT22;3161;48.794;9.784;2022-08-01T04:30:54;17.30;99.90
6256;DHT22;3161;48.794;9.784;2022-08-01T04:33:23;17.40;99.90
6256;DHT22;3161;48.794;9.784;2022-08-01T04:35:52;17.40;99.90
6256;DHT22;3161;48.794;9.784;2022-08-01T04:38:22;17.40;99.90
6256;DHT22;3161;48.794;9.784;2022-08-01T04:40:52;17.40;99.90
6256;DHT22;3161;48.794;9.784;2022-08-01T04:43:21;17.50;99.90
6256;DHT22;3161;48.794;9.784;2022-08-01T04:45:50;17.50;99.90
6256;DHT22;3161;48.794;9.784;2022-08-01T04:48:19;17.50;99.90
6256;DHT22;3161;48.794;9.784;2022-08-01T04:50:46;17.60;99.90
6256;DHT22;3161;48.794;9.784;2022-08-01T04:53:18;17.60;99.90
6256;DHT22;3161;48.794;9.784;2022-08-01T04:55:48;17.60;99.90
6256;DHT22;3161;48.794;9.784;2022-08-01T04:58:16;17.70;99.90
6256;DHT22;3161;48.794;9.784;2022-08-01T05:00:43;17.70;99.90
6256;DHT22;3161;48.794;9.784;2022-08-01T05:03:11;17.80;99.90
6256;DHT22;3161;48.794;9.784;2022-08-01T05:05:38;17.80;99.90
6256;DHT22;3161;48.794;9.784;2022-08-01T05:08:06;17.80;99.90
6256;DHT22;3161;48.794;9.784;2022-08-01T05:10:34;17.90;99.90
6256;DHT22;3161;48.794;9.784;2022-08-01T05:13:02;17.90;99.90
6256;DHT22;3161;48.794;9.784;2022-08-01T05:15:29;18.00;99.90
6256;DHT22;3161;48.794;9.784;2022-08-01T05:17:57;18.00;99.90
6256;DHT22;3161;48.794;9.784;2022-08-01T05:20:24;18.00;99.90
6256;DHT22;3161;48.794;9.784;2022-08-01T05:22:52;18.10;99.90
6256;DHT22;3161;48.794;9.784;2022-08-01T05:25:20;18.10;99.90
6256;DHT22;3161;48.794;9.784;2022-08-01T05:27:48;18.20;99.90
6256;DHT22;3161;48.794;9.784;2022-08-01T05:30:15;18.30;99.90
6256;DHT22;3161;48.794;9.784;2022-08-01T05:32:43;18.30;99.90
6256;DHT22;3161;48.794;9.784;2022-08-01T05:35:10;18.40;99.90
6256;DHT22;3161;48.794;9.784;2022-08-01T05:37:38;18.60;99.90
6256;DHT22;3161;48.794;9.784;2022-08-01T05:40:06;18.70;99.90
6256;DHT22;3161;48.794;9.784;2022-08-01T05:42:34;18.80;99.90
6256;DHT22;3161;48.794;9.784;2022-08-01T05:45:01;18.90;99.90
6256;DHT22;3161;48.794;9.784;2022-08-01T05:47:29;19.10;99.90
6256;DHT22;3161;48.794;9.784;2022-08-01T05:49:56;19.20;99.90
6256;DHT22;3161;48.794;9.784;2022-08-01T05:52:24;19.30;99.90
6256;DHT22;3161;48.794;9.784;2022-08-01T05:54:51;19.40;99.90
6256;DHT22;3161;48.794;9.784;2022-08-01T05:57:19;19.50;99.90
6256;DHT22;3161;48.794;9.784;2022-08-01T05:59:46;19.50;99.90
6256;DHT22;3161;48.794;9.784;2022-08-01T06:02:14;19.60;99.90
6256;DHT22;3161;48.794;9.784;2022-08-01T06:04:41;19.70;99.90
6256;DHT22;3161;48.794;9.784;2022-08-01T06:07:09;19.70;99.90
6256;DHT22;3161;48.794;9.784;2022-08-01T06:09:36;19.60;99.90
6256;DHT22;3161;48.794;9.784;2022-08-01T06:12:04;19.70;99.90
6256;DHT22;3161;48.794;9.784;2022-08-01T06:14:32;19.70;99.90
6256;DHT22;3161;48.794;9.784;2022-08-01T06:17:00;19.90;99.90
6256;DHT22;3161;48.794;9.784;2022-08-01T06:19:28;19.90;99.90
6256;DHT22;3161;48.794;9.784;2022-08-01T06:21:55;20.00;99.90
6256;DHT22;3161;48.794;9.784;2022-08-01T06:24:23;20.20;99.90
6256;DHT22;3161;48.794;9.784;2022-08-01T06:26:50;20.30;99.90
6256;DHT22;3161;48.794;9.784;2022-08-01T06:29:18;20.50;99.90
6256;DHT22;3161;48.794;9.784;2022-08-01T06:31:45;20.70;99.90
6256;DHT22;3161;48.794;9.784;2022-08-01T06:34:13;20.90;99.90
6256;DHT22;3161;48.794;9.784;2022-08-01T06:36:41;20.90;99.90
6256;DHT22;3161;48.794;9.784;2022-08-01T06:39:09;21.00;99.90
6256;DHT22;3161;48.794;9.784;2022-08-01T06:41:36;21.10;99.90
6256;DHT22;3161;48.794;9.784;2022-08-01T06:44:04;21.30;99.90
6256;DHT22;3161;48.794;9.784;2022-08-01T06:46:32;21.50;99.90
6256;DHT22;3161;48.794;9.784;2022-08-01T06:49:00;21.70;99.90
6256;DHT22;3161;48.794;9.784;2022-08-01T06:51:27;21.90;99.90
6256;DHT22;3161;48.794;9.784;2022-08-01T06:53:55;22.00;99.90
6256;DHT22;3161;48.794;9.784;2022-08-01T06:56:22;22.20;99.90
6256;DHT22;3161;48.794;9.784;2022-08-01T06:58:50;22.40;99.90
6256;DHT22;3161;48.794;9.784;2022-08-01T07:01:18;22.60;99.90
6256;DHT22;3161;48.794;9.784;2022-08-01T07:03:46;22.70;99.90
6256;DHT22;3161;48.794;9.784;2022-08-01T07:06:13;22.90;99.90
6256;DHT22;3161;48.794;9.784;2022-08-01T07:08:41;23.10;99.90
6256;DHT22;3161;48.794;9.784;2022-08-01T07:11:08;23.40;99.90
6256;DHT22;3161;48.794;9.784;2022-08-01T07:13:36;23.80;99.90
6256;DHT22;3161;48.794;9.784;2022-08-01T07:16:04;24.30;99.90
6256;DHT22;3161;48.794;9.784;2022-08-01T07:18:32;25.00;99.90
6256;DHT22;3161;48.794;9.784;2022-08-01T07:20:59;25.50;99.90
6256;DHT22;3161;48.794;9.784;2022-08-01T07:23:27;25.80;99.90
6256;DHT22;3161;48.794;9.784;2022-08-01T07:25:54;26.10;99.90
6256;DHT22;3161;48.794;9.784;2022-08-01T07:28:22;26.40;99.90
6256;DHT22;3161;48.794;9.784;2022-08-01T07:30:50;26.50;99.90
6256;DHT22;3161;48.794;9.784;2022-08-01T07:33:18;26.50;99.90
6256;DHT22;3161;48.794;9.784;2022-08-01T07:35:45;26.40;99.90
6256;DHT22;3161;48.794;9.784;2022-08-01T07:38:13;26.30;99.90
6256;DHT22;3161;48.794;9.784;2022-08-01T07:40:43;26.20;99.90
6256;DHT22;3161;48.794;9.784;2022-08-01T07:43:11;26.10;99.90
6256;DHT22;3161;48.794;9.784;2022-08-01T07:45:40;26.10;99.90
6256;DHT22;3161;48.794;9.784;2022-08-01T07:48:08;26.10;99.90
6256;DHT22;3161;48.794;9.784;2022-08-01T07:50:35;26.20;99.90
6256;DHT22;3161;48.794;9.784;2022-08-01T07:53:03;26.30;99.90
6256;DHT22;3161;48.794;9.784;2022-08-01T07:55:31;26.40;99.90
6256;DHT22;3161;48.794;9.784;2022-08-01T07:57:59;26.50;99.90
6256;DHT22;3161;48.794;9.784;2022-08-01T08:00:26;26.60;99.90
6256;DHT22;3161;48.794;9.784;2022-08-01T08:02:54;26.70;99.90
6256;DHT22;3161;48.794;9.784;2022-08-01T08:05:24;26.80;99.90
6256;DHT22;3161;48.794;9.784;2022-08-01T08:07:51;26.80;99.90
6256;DHT22;3161;48.794;9.784;2022-08-01T08:10:19;26.90;99.90
6256;DHT22;3161;48.794;9.784;2022-08-01T08:12:46;27.00;99.90
6256;DHT22;3161;48.794;9.784;2022-08-01T08:15:14;27.10;99.90
6256;DHT22;3161;48.794;9.784;2022-08-01T08:17:42;27.20;99.90
6256;DHT22;3161;48.794;9.784;2022-08-01T08:20:10;27.40;99.90
6256;DHT22;3161;48.794;9.784;2022-08-01T08:22:38;27.50;99.90
6256;DHT22;3161;48.794;9.784;2022-08-01T08:25:07;27.60;99.60
6256;DHT22;3161;48.794;9.784;2022-08-01T08:27:35;27.50;99.10
6256;DHT22;3161;48.794;9.784;2022-08-01T08:30:05;27.50;99.90
6256;DHT22;3161;48.794;9.784;2022-08-01T08:32:35;27.40;99.30
6256;DHT22;3161;48.794;9.784;2022-08-01T08:35:04;27.40;98.80
6256;DHT22;3161;48.794;9.784;2022-08-01T08:37:33;27.30;99.00
6256;DHT22;3161;48.794;9.784;2022-08-01T08:40:01;27.20;99.90
6256;DHT22;3161;48.794;9.784;2022-08-01T08:42:28;27.20;99.00
6256;DHT22;3161;48.794;9.784;2022-08-01T08:44:56;27.10;99.60
6256;DHT22;3161;48.794;9.784;2022-08-01T08:47:25;27.10;99.10
6256;DHT22;3161;48.794;9.784;2022-08-01T08:49:56;27.00;99.30
6256;DHT22;3161;48.794;9.784;2022-08-01T08:52:24;26.90;99.90
6256;DHT22;3161;48.794;9.784;2022-08-01T08:54:53;26.90;99.90
6256;DHT22;3161;48.794;9.784;2022-08-01T08:57:22;26.90;99.90
6256;DHT22;3161;48.794;9.784;2022-08-01T08:59:50;26.90;99.90
6256;DHT22;3161;48.794;9.784;2022-08-01T09:02:19;27.10;99.90
6256;DHT22;3161;48.794;9.784;2022-08-01T09:04:48;27.20;99.90
6256;DHT22;3161;48.794;9.784;2022-08-01T09:07:16;27.20;99.00
6256;DHT22;3161;48.794;9.784;2022-08-01T09:09:43;27.20;98.70
6256;DHT22;3161;48.794;9.784;2022-08-01T09:12:11;27.20;98.70
6256;DHT22;3161;48.794;9.784;2022-08-01T09:14:47;27.10;98.70
6256;DHT22;3161;48.794;9.784;2022-08-01T09:17:16;27.10;99.00
6256;DHT22;3161;48.794;9.784;2022-08-01T09:19:50;27.10;99.60
6256;DHT22;3161;48.794;9.784;2022-08-01T09:22:23;27.20;99.90
6256;DHT22;3161;48.794;9.784;2022-08-01T09:24:58;27.30;99.90
6256;DHT22;3161;48.794;9.784;2022-08-01T09:27:27;27.40;99.60
6256;DHT22;3161;48.794;9.784;2022-08-01T09:29:55;27.40;99.60
6256;DHT22;3161;48.794;9.784;2022-08-01T09:32:24;27.40;99.10
6256;DHT22;3161;48.794;9.784;2022-08-01T09:34:51;27.50;99.70
6256;DHT22;3161;48.794;9.784;2022-08-01T09:37:22;27.60;99.80
6256;DHT22;3161;48.794;9.784;2022-08-01T09:39:54;27.60;99.00
6256;DHT22;3161;48.794;9.784;2022-08-01T09:42:22;27.70;99.50
6256;DHT22;3161;48.794;9.784;2022-08-01T09:44:50;27.70;98.60
6256;DHT22;3161;48.794;9.784;2022-08-01T09:47:20;27.70;97.60
6256;DHT22;3161;48.794;9.784;2022-08-01T09:49:55;27.70;96.80
6256;DHT22;3161;48.794;9.784;2022-08-01T09:52:25;27.60;97.50
6256;DHT22;3161;48.794;9.784;2022-08-01T09:55:04;27.60;97.60
6256;DHT22;3161;48.794;9.784;2022-08-01T09:57:29;27.50;97.10
6256;DHT22;3161;48.794;9.784;2022-08-01T09:59:59;27.40;98.00
6256;DHT22;3161;48.794;9.784;2022-08-01T10:02:30;27.50;97.70
6256;DHT22;3161;48.794;9.784;2022-08-01T10:04:59;27.60;98.70
6256;DHT22;3161;48.794;9.784;2022-08-01T10:07:27;27.60;96.40
6256;DHT22;3161;48.794;9.784;2022-08-01T10:09:55;27.60;96.50
6256;DHT22;3161;48.794;9.784;2022-08-01T10:12:23;27.50;96.40
6256;DHT22;3161;48.794;9.784;2022-08-01T10:14:51;27.40;95.50
6256;DHT22;3161;48.794;9.784;2022-08-01T10:17:23;27.40;97.20
6256;DHT22;3161;48.794;9.784;2022-08-01T10:19:53;27.50;97.40
6256;DHT22;3161;48.794;9.784;2022-08-01T10:22:23;27.60;97.10
6256;DHT22;3161;48.794;9.784;2022-08-01T10:24:54;27.80;96.30
6256;DHT22;3161;48.794;9.784;2022-08-01T10:27:21;27.90;97.10
6256;DHT22;3161;48.794;9.784;2022-08-01T10:29:54;28.10;95.10
6256;DHT22;3161;48.794;9.784;2022-08-01T10:32:21;28.20;96.30
6256;DHT22;3161;48.794;9.784;2022-08-01T10:34:52;28.40;94.90
6256;DHT22;3161;48.794;9.784;2022-08-01T10:37:22;28.40;94.20
6256;DHT22;3161;48.794;9.784;2022-08-01T10:39:51;28.50;94.50
6256;DHT22;3161;48.794;9.784;2022-08-01T10:42:19;28.70;93.30
6256;DHT22;3161;48.794;9.784;2022-08-01T10:44:47;28.70;93.00
6256;DHT22;3161;48.794;9.784;2022-08-01T10:47:25;28.70;92.30
6256;DHT22;3161;48.794;9.784;2022-08-01T10:52:22;28.90;92.50
6256;DHT22;3161;48.794;9.784;2022-08-01T10:55:01;28.90;91.40
6256;DHT22;3161;48.794;9.784;2022-08-01T10:57:21;28.90;92.30
6256;DHT22;3161;48.794;9.784;2022-08-01T10:59:50;28.70;92.60
6256;DHT22;3161;48.794;9.784;2022-08-01T11:02:29;28.70;92.30
6256;DHT22;3161;48.794;9.784;2022-08-01T11:05:07;28.70;91.80
6256;DHT22;3161;48.794;9.784;2022-08-01T11:10:36;28.80;92.50
6256;DHT22;3161;48.794;9.784;2022-08-01T11:13:02;29.00;92.60
6256;DHT22;3161;48.794;9.784;2022-08-01T11:15:31;29.10;92.70
6256;DHT22;3161;48.794;9.784;2022-08-01T11:18:01;29.20;89.70
6256;DHT22;3161;48.794;9.784;2022-08-01T11:20:33;29.30;89.80
6256;DHT22;3161;48.794;9.784;2022-08-01T11:30:51;29.70;89.30
6256;DHT22;3161;48.794;9.784;2022-08-01T11:33:54;29.80;90.10
6256;DHT22;3161;48.794;9.784;2022-08-01T11:41:23;29.90;87.90
6256;DHT22;3161;48.794;9.784;2022-08-01T11:47:03;29.90;88.10
6256;DHT22;3161;48.794;9.784;2022-08-01T11:54:52;30.20;80.70
6256;DHT22;3161;48.794;9.784;2022-08-01T11:57:25;30.20;80.50
6256;DHT22;3161;48.794;9.784;2022-08-01T11:59:57;30.20;80.60
6256;DHT22;3161;48.794;9.784;2022-08-01T12:02:27;30.30;80.20
6256;DHT22;3161;48.794;9.784;2022-08-01T12:04:57;30.40;80.60
6256;DHT22;3161;48.794;9.784;2022-08-01T12:07:28;30.40;81.50
6256;DHT22;3161;48.794;9.784;2022-08-01T12:10:17;30.40;79.70
6256;DHT22;3161;48.794;9.784;2022-08-01T12:12:47;30.30;80.10
6256;DHT22;3161;48.794;9.784;2022-08-01T12:15:16;30.30;79.70
6256;DHT22;3161;48.794;9.784;2022-08-01T12:17:58;30.30;80.20
6256;DHT22;3161;48.794;9.784;2022-08-01T12:20:28;30.30;80.30
6256;DHT22;3161;48.794;9.784;2022-08-01T12:23:08;30.30;80.80
6256;DHT22;3161;48.794;9.784;2022-08-01T12:25:27;30.30;81.80
6256;DHT22;3161;48.794;9.784;2022-08-01T12:27:59;30.40;83.40
6256;DHT22;3161;48.794;9.784;2022-08-01T12:30:24;30.70;81.00
6256;DHT22;3161;48.794;9.784;2022-08-01T12:32:53;30.90;78.80
6256;DHT22;3161;48.794;9.784;2022-08-01T12:35:23;30.90;75.50
6256;DHT22;3161;48.794;9.784;2022-08-01T12:37:52;31.20;76.70
6256;DHT22;3161;48.794;9.784;2022-08-01T12:40:23;31.40;74.40
6256;DHT22;3161;48.794;9.784;2022-08-01T12:42:52;31.40;73.30
6256;DHT22;3161;48.794;9.784;2022-08-01T12:45:29;31.30;76.10
6256;DHT22;3161;48.794;9.784;2022-08-01T12:47:58;31.10;75.70
6256;DHT22;3161;48.794;9.784;2022-08-01T12:50:28;30.90;77.80
6256;DHT22;3161;48.794;9.784;2022-08-01T12:52:57;30.70;76.20
6256;DHT22;3161;48.794;9.784;2022-08-01T12:55:26;30.50;77.60
6256;DHT22;3161;48.794;9.784;2022-08-01T12:58:12;30.40;77.60
6256;DHT22;3161;48.794;9.784;2022-08-01T13:00:41;30.50;78.90
6256;DHT22;3161;48.794;9.784;2022-08-01T13:03:18;30.60;78.20
6256;DHT22;3161;48.794;9.784;2022-08-01T13:05:48;30.80;76.30
6256;DHT22;3161;48.794;9.784;2022-08-01T13:08:21;31.00;76.00
6256;DHT22;3161;48.794;9.784;2022-08-01T13:10:50;31.00;71.70
6256;DHT22;3161;48.794;9.784;2022-08-01T13:13:18;30.80;73.00
6256;DHT22;3161;48.794;9.784;2022-08-01T13:15:47;30.60;72.50
6256;DHT22;3161;48.794;9.784;2022-08-01T13:18:29;30.40;77.30
6256;DHT22;3161;48.794;9.784;2022-08-01T13:21:08;30.30;77.10
6256;DHT22;3161;48.794;9.784;2022-08-01T13:23:38;30.10;76.50
6256;DHT22;3161;48.794;9.784;2022-08-01T13:26:05;30.00;77.40
6256;DHT22;3161;48.794;9.784;2022-08-01T13:28:34;30.00;78.30
6256;DHT22;3161;48.794;9.784;2022-08-01T13:31:06;30.20;74.70
6256;DHT22;3161;48.794;9.784;2022-08-01T13:33:45;31.00;73.80
6256;DHT22;3161;48.794;9.784;2022-08-01T13:36:14;31.60;71.50
6256;DHT22;3161;48.794;9.784;2022-08-01T13:38:42;33.80;65.00
6256;DHT22;3161;48.794;9.784;2022-08-01T13:41:28;36.60;59.30
6256;DHT22;3161;48.794;9.784;2022-08-01T13:43:55;39.00;55.30
6256;DHT22;3161;48.794;9.784;2022-08-01T13:46:23;41.20;49.00
6256;DHT22;3161;48.794;9.784;2022-08-01T13:48:50;43.10;42.80
6256;DHT22;3161;48.794;9.784;2022-08-01T13:51:18;44.90;39.00
6256;DHT22;3161;48.794;9.784;2022-08-01T13:53:46;46.30;35.80
6256;DHT22;3161;48.794;9.784;2022-08-01T13:56:13;46.30;33.90
6256;DHT22;3161;48.794;9.784;2022-08-01T13:58:43;46.10;33.00
6256;DHT22;3161;48.794;9.784;2022-08-01T14:01:10;46.00;32.60
6256;DHT22;3161;48.794;9.784;2022-08-01T14:03:38;46.30;31.80
6256;DHT22;3161;48.794;9.784;2022-08-01T14:06:06;46.30;31.60
6256;DHT22;3161;48.794;9.784;2022-08-01T14:08:34;46.90;31.20
6256;DHT22;3161;48.794;9.784;2022-08-01T14:11:01;47.70;30.30
6256;DHT22;3161;48.794;9.784;2022-08-01T14:13:29;48.60;29.30
6256;DHT22;3161;48.794;9.784;2022-08-01T14:15:56;49.00;29.90
6256;DHT22;3161;48.794;9.784;2022-08-01T14:18:24;47.70;29.40
6256;DHT22;3161;48.794;9.784;2022-08-01T14:20:52;45.80;30.40
6256;DHT22;3161;48.794;9.784;2022-08-01T14:23:19;44.40;33.00
6256;DHT22;3161;48.794;9.784;2022-08-01T14:25:47;42.90;33.80
6256;DHT22;3161;48.794;9.784;2022-08-01T14:28:15;41.30;37.30
6256;DHT22;3161;48.794;9.784;2022-08-01T14:30:42;39.80;38.00
6256;DHT22;3161;48.794;9.784;2022-08-01T14:33:11;38.60;40.90
6256;DHT22;3161;48.794;9.784;2022-08-01T14:35:40;37.60;41.20
6256;DHT22;3161;48.794;9.784;2022-08-01T14:38:08;36.70;43.40
6256;DHT22;3161;48.794;9.784;2022-08-01T14:40:35;36.00;43.10
6256;DHT22;3161;48.794;9.784;2022-08-01T14:43:03;35.20;44.20
6256;DHT22;3161;48.794;9.784;2022-08-01T14:45:30;34.60;45.40
6256;DHT22;3161;48.794;9.784;2022-08-01T14:47:59;34.00;47.40
6256;DHT22;3161;48.794;9.784;2022-08-01T14:50:27;33.70;48.20
6256;DHT22;3161;48.794;9.784;2022-08-01T14:52:54;33.40;47.60
6256;DHT22;3161;48.794;9.784;2022-08-01T14:55:22;33.30;49.80
6256;DHT22;3161;48.794;9.784;2022-08-01T14:57:51;33.20;49.70
6256;DHT22;3161;48.794;9.784;2022-08-01T15:00:19;33.10;49.60
6256;DHT22;3161;48.794;9.784;2022-08-01T15:02:48;32.90;51.80
6256;DHT22;3161;48.794;9.784;2022-08-01T15:05:15;32.90;50.80
6256;DHT22;3161;48.794;9.784;2022-08-01T15:07:43;32.80;50.70
6256;DHT22;3161;48.794;9.784;2022-08-01T15:10:11;32.70;50.30
6256;DHT22;3161;48.794;9.784;2022-08-01T15:12:38;32.60;51.30
6256;DHT22;3161;48.794;9.784;2022-08-01T15:15:06;32.50;51.70
6256;DHT22;3161;48.794;9.784;2022-08-01T15:17:34;32.30;52.60
6256;DHT22;3161;48.794;9.784;2022-08-01T15:20:05;32.20;51.60
6256;DHT22;3161;48.794;9.784;2022-08-01T15:22:33;32.00;54.70
6256;DHT22;3161;48.794;9.784;2022-08-01T15:25:01;31.90;53.00
6256;DHT22;3161;48.794;9.784;2022-08-01T15:27:29;31.80;53.70
6256;DHT22;3161;48.794;9.784;2022-08-01T15:29:57;31.60;53.30
6256;DHT22;3161;48.794;9.784;2022-08-01T15:32:24;31.50;54.30
6256;DHT22;3161;48.794;9.784;2022-08-01T15:34:52;31.30;54.50
6256;DHT22;3161;48.794;9.784;2022-08-01T15:37:21;31.10;54.20
6256;DHT22;3161;48.794;9.784;2022-08-01T15:39:49;30.90;55.20
6256;DHT22;3161;48.794;9.784;2022-08-01T15:42:18;30.80;54.50
6256;DHT22;3161;48.794;9.784;2022-08-01T15:44:45;30.60;55.10
6256;DHT22;3161;48.794;9.784;2022-08-01T15:47:13;30.50;54.70
6256;DHT22;3161;48.794;9.784;2022-08-01T15:49:40;30.30;55.40
6256;DHT22;3161;48.794;9.784;2022-08-01T15:52:08;30.10;57.10
6256;DHT22;3161;48.794;9.784;2022-08-01T15:54:36;30.00;58.10
6256;DHT22;3161;48.794;9.784;2022-08-01T15:57:06;29.90;61.30
6256;DHT22;3161;48.794;9.784;2022-08-01T15:59:36;29.70;63.80
6256;DHT22;3161;48.794;9.784;2022-08-01T16:02:04;29.60;61.20
6256;DHT22;3161;48.794;9.784;2022-08-01T16:04:31;29.40;60.80
6256;DHT22;3161;48.794;9.784;2022-08-01T16:06:59;29.30;60.20
6256;DHT22;3161;48.794;9.784;2022-08-01T16:09:27;29.20;61.30
6256;DHT22;3161;48.794;9.784;2022-08-01T16:11:54;29.20;58.80
6256;DHT22;3161;48.794;9.784;2022-08-01T16:14:22;29.20;61.40
6256;DHT22;3161;48.794;9.784;2022-08-01T16:16:50;29.20;61.00
6256;DHT22;3161;48.794;9.784;2022-08-01T16:19:17;29.10;61.50
6256;DHT22;3161;48.794;9.784;2022-08-01T16:21:45;29.10;62.00
6256;DHT22;3161;48.794;9.784;2022-08-01T16:24:13;29.00;61.80
6256;DHT22;3161;48.794;9.784;2022-08-01T16:26:41;28.90;61.40
6256;DHT22;3161;48.794;9.784;2022-08-01T16:29:08;28.80;62.40
6256;DHT22;3161;48.794;9.784;2022-08-01T16:31:36;28.70;61.30
6256;DHT22;3161;48.794;9.784;2022-08-01T16:34:03;28.70;64.00
6256;DHT22;3161;48.794;9.784;2022-08-01T16:36:31;28.60;63.30
6256;DHT22;3161;48.794;9.784;2022-08-01T16:38:59;28.60;61.10
6256;DHT22;3161;48.794;9.784;2022-08-01T16:41:26;28.50;61.50
6256;DHT22;3161;48.794;9.784;2022-08-01T16:43:54;28.50;61.00
6256;DHT22;3161;48.794;9.784;2022-08-01T16:46:23;28.40;59.80
6256;DHT22;3161;48.794;9.784;2022-08-01T16:48:52;28.00;57.20
6256;DHT22;3161;48.794;9.784;2022-08-01T16:51:20;27.70;58.30
6256;DHT22;3161;48.794;9.784;2022-08-01T16:53:48;27.40;61.50